Time;durP1;ratioP1;P1;durP2;ratioP2;P2;SDS_P1;SDS_P2;PMS_P1;PMS_P2;Temp;Humidity;BMP_temperature;BMP_pressure;BME280_temperature;BME280_humidity;BME280_pressure;Samples;Min_cycle;Max_cycle;Signal;HPM_P1;HPM_P2
2022/10/05 00:00:14;;;;;;;8.50;6.33;;;10.40;99.90;;;;;;5046399;28;20227;-82
2022/10/05 00:02:42;;;;;;;8.53;6.13;;;10.40;99.90;;;;;;5049662;28;20235;-83
2022/10/05 00:05:20;;;;;;;11.20;5.83;;;10.40;99.90;;;;;;5046371;28;20282;-81
2022/10/05 00:07:46;;;;;;;10.73;5.70;;;10.40;99.90;;;;;;5049113;28;20236;-81
2022/10/05 00:10:16;;;;;;;10.07;6.33;;;10.40;99.90;;;;;;5050934;28;20920;-82
2022/10/05 00:12:45;;;;;;;8.83;5.90;;;10.40;99.90;;;;;;5046615;28;20227;-82
2022/10/05 00:15:14;;;;;;;10.47;5.87;;;10.50;99.90;;;;;;5047272;28;20226;-83
2022/10/05 00:17:42;;;;;;;11.50;6.30;;;10.50;99.90;;;;;;5063572;28;20234;-83
2022/10/05 00:20:18;;;;;;;13.40;6.20;;;10.50;99.90;;;;;;5044393;28;20242;-81
2022/10/05 00:22:44;;;;;;;9.07;6.33;;;10.50;99.90;;;;;;5046579;28;20242;-82
2022/10/05 00:25:14;;;;;;;7.77;5.87;;;10.50;99.90;;;;;;5058818;28;20257;-82
2022/10/05 00:27:41;;;;;;;8.30;5.97;;;10.50;99.90;;;;;;5047783;28;20225;-82
2022/10/05 00:30:14;;;;;;;8.97;5.90;;;10.60;99.90;;;;;;5044293;28;20320;-81
2022/10/05 00:32:44;;;;;;;12.93;6.70;;;10.60;99.90;;;;;;5060739;28;20394;-81
2022/10/05 00:35:12;;;;;;;9.37;5.40;;;10.60;99.90;;;;;;5038095;28;20790;-81
2022/10/05 00:37:39;;;;;;;8.73;5.57;;;10.60;99.90;;;;;;5044255;28;20252;-82
2022/10/05 00:40:16;;;;;;;8.07;5.43;;;10.60;99.90;;;;;;5039506;28;20218;-81
2022/10/05 00:42:51;;;;;;;7.83;5.70;;;10.70;99.90;;;;;;5043539;28;20223;-81
2022/10/05 00:45:23;;;;;;;11.10;6.17;;;10.70;99.90;;;;;;5044668;28;20232;-81
2022/10/05 00:48:11;;;;;;;11.00;6.33;;;10.70;99.90;;;;;;5035747;28;20231;-82
2022/10/05 00:51:03;;;;;;;9.93;5.90;;;10.60;99.90;;;;;;5055418;28;20228;-81
2022/10/05 00:53:41;;;;;;;8.50;5.50;;;10.70;99.90;;;;;;5034208;28;20361;-81
2022/10/05 00:56:18;;;;;;;11.50;5.93;;;10.80;99.90;;;;;;5045595;28;20245;-81
2022/10/05 00:58:55;;;;;;;10.17;6.03;;;10.80;99.90;;;;;;5048048;28;20237;-81
2022/10/05 01:01:31;;;;;;;9.43;5.83;;;10.80;99.90;;;;;;5042448;28;20233;-81
2022/10/05 01:04:11;;;;;;;9.40;5.87;;;10.80;99.90;;;;;;5060183;28;20653;-81
2022/10/05 01:06:48;;;;;;;11.57;6.20;;;10.80;99.90;;;;;;5038675;28;20237;-82
2022/10/05 01:09:26;;;;;;;9.17;5.93;;;10.90;99.90;;;;;;5054389;28;20349;-82
2022/10/05 01:12:01;;;;;;;10.60;6.10;;;10.90;99.90;;;;;;5046837;28;20290;-81
2022/10/05 01:14:33;;;;;;;8.53;5.17;;;10.90;99.90;;;;;;5033841;28;20227;-81
2022/10/05 01:17:05;;;;;;;6.77;5.60;;;10.90;99.90;;;;;;5044606;28;20272;-82
2022/10/05 01:19:50;;;;;;;8.87;5.70;;;10.90;99.90;;;;;;5036424;28;20238;-81
2022/10/05 01:22:28;;;;;;;9.63;5.27;;;11.00;99.90;;;;;;5042763;28;20721;-81
2022/10/05 01:25:12;;;;;;;8.93;5.40;;;11.00;99.90;;;;;;5045270;28;20226;-81
2022/10/05 01:27:48;;;;;;;7.97;5.33;;;11.00;99.90;;;;;;5042320;28;20230;-82
2022/10/05 01:30:17;;;;;;;9.40;5.77;;;11.00;99.90;;;;;;5042486;28;20302;-82
2022/10/05 01:32:49;;;;;;;7.43;5.27;;;11.00;99.90;;;;;;5033746;28;20236;-82
2022/10/05 01:35:25;;;;;;;9.30;5.70;;;11.00;99.90;;;;;;5043014;28;20230;-82
2022/10/05 01:37:59;;;;;;;10.13;6.50;;;11.00;99.90;;;;;;5041051;28;20231;-82
2022/10/05 01:40:34;;;;;;;10.53;5.53;;;11.10;99.90;;;;;;5053399;28;20227;-83
2022/10/05 01:43:11;;;;;;;9.13;5.90;;;11.10;99.90;;;;;;5042902;28;20235;-83
2022/10/05 01:45:49;;;;;;;11.70;6.03;;;11.10;99.90;;;;;;5040702;28;20219;-82
2022/10/05 01:48:23;;;;;;;11.27;5.23;;;11.20;99.90;;;;;;5040393;28;20253;-82
2022/10/05 01:50:59;;;;;;;7.03;5.40;;;11.20;99.90;;;;;;5041559;28;20362;-82
2022/10/05 01:53:37;;;;;;;11.77;5.50;;;11.20;99.90;;;;;;5036041;28;20463;-81
2022/10/05 01:56:13;;;;;;;8.37;5.70;;;11.20;99.90;;;;;;5041969;28;20226;-81
2022/10/05 01:58:55;;;;;;;13.43;6.07;;;11.20;99.90;;;;;;5045740;28;20713;-81
2022/10/05 02:01:27;;;;;;;13.30;5.90;;;11.20;99.90;;;;;;5041278;28;20599;-81
2022/10/05 02:04:01;;;;;;;9.23;6.10;;;11.20;99.90;;;;;;5039174;28;20216;-81
2022/10/05 02:06:32;;;;;;;9.93;5.63;;;11.20;99.90;;;;;;5043511;28;20312;-81
2022/10/05 02:09:04;;;;;;;11.93;6.07;;;11.20;99.90;;;;;;5056232;28;20323;-82
2022/10/05 02:11:33;;;;;;;9.43;5.77;;;11.20;99.90;;;;;;5039827;28;20228;-81
2022/10/05 02:14:07;;;;;;;10.77;6.13;;;11.20;99.90;;;;;;5025847;28;20240;-82
2022/10/05 02:16:39;;;;;;;11.80;5.90;;;11.20;99.90;;;;;;5025056;28;20227;-82
2022/10/05 02:19:13;;;;;;;10.20;6.50;;;11.30;99.90;;;;;;5031352;28;20711;-82
2022/10/05 02:21:47;;;;;;;8.57;5.33;;;11.30;99.90;;;;;;5022877;28;20810;-82
2022/10/05 02:24:22;;;;;;;7.87;6.13;;;11.30;99.90;;;;;;5034435;28;20220;-81
2022/10/05 02:26:52;;;;;;;9.50;6.20;;;11.30;99.90;;;;;;5022386;28;20224;-82
2022/10/05 02:29:23;;;;;;;10.03;5.87;;;11.40;99.90;;;;;;5050486;28;20282;-81
2022/10/05 02:31:57;;;;;;;11.30;5.80;;;11.40;99.90;;;;;;5049809;28;20706;-81
2022/10/05 02:34:25;;;;;;;8.77;5.47;;;11.40;99.90;;;;;;5051612;28;20247;-81
2022/10/05 02:37:11;;;;;;;8.57;5.63;;;11.50;99.90;;;;;;5048409;28;20224;-82
2022/10/05 02:39:46;;;;;;;9.40;5.60;;;11.50;99.90;;;;;;5043675;28;20225;-81
2022/10/05 02:42:21;;;;;;;8.23;5.67;;;11.50;99.90;;;;;;5041447;28;20627;-80
2022/10/05 02:45:03;;;;;;;10.03;5.60;;;11.60;99.90;;;;;;5042792;28;20618;-81
2022/10/05 02:47:39;;;;;;;8.20;5.13;;;11.60;99.90;;;;;;5033409;28;20246;-81
2022/10/05 02:50:14;;;;;;;9.80;5.20;;;11.60;99.90;;;;;;5042762;28;20265;-81
2022/10/05 02:52:51;;;;;;;8.47;5.73;;;11.60;99.90;;;;;;5040999;28;20218;-80
2022/10/05 02:55:24;;;;;;;8.90;5.50;;;11.70;99.90;;;;;;5044944;28;20222;-81
2022/10/05 02:57:59;;;;;;;13.50;5.83;;;11.70;99.90;;;;;;5043439;28;20309;-81
2022/10/05 03:00:33;;;;;;;11.60;5.50;;;11.70;99.90;;;;;;5055875;28;20302;-80
2022/10/05 03:03:06;;;;;;;9.03;5.43;;;11.70;99.90;;;;;;5059087;28;20219;-80
2022/10/05 03:05:37;;;;;;;7.60;5.47;;;11.70;99.90;;;;;;5038645;28;21018;-81
2022/10/05 03:08:13;;;;;;;9.90;5.83;;;11.70;99.90;;;;;;5048420;28;20910;-82
2022/10/05 03:10:47;;;;;;;8.10;5.27;;;11.70;99.90;;;;;;5047787;28;20226;-80
2022/10/05 03:13:24;;;;;;;8.30;5.70;;;11.70;99.90;;;;;;5055921;28;20260;-80
2022/10/05 03:16:06;;;;;;;10.30;5.23;;;11.70;99.90;;;;;;5045358;28;20239;-80
2022/10/05 03:18:47;;;;;;;8.97;5.03;;;11.70;99.90;;;;;;5046406;28;20739;-81
2022/10/05 03:21:27;;;;;;;7.33;4.83;;;11.70;99.90;;;;;;5045632;28;20217;-82
2022/10/05 03:24:12;;;;;;;9.23;5.50;;;11.70;99.90;;;;;;5042289;28;20247;-80
2022/10/05 03:26:47;;;;;;;6.97;4.90;;;11.80;99.90;;;;;;5023691;28;20235;-81
2022/10/05 03:29:27;;;;;;;6.60;5.37;;;11.80;99.90;;;;;;5039830;28;20220;-81
2022/10/05 03:32:04;;;;;;;9.23;5.77;;;11.80;99.90;;;;;;5044545;28;20315;-82
2022/10/05 03:34:39;;;;;;;7.60;5.37;;;11.80;99.90;;;;;;5018109;28;20255;-81
2022/10/05 03:37:13;;;;;;;6.97;5.10;;;11.80;99.90;;;;;;5048571;23;20326;-82
2022/10/05 03:39:45;;;;;;;7.03;5.00;;;11.80;99.90;;;;;;5023657;28;20223;-84
2022/10/05 03:42:22;;;;;;;7.60;5.00;;;11.80;99.90;;;;;;5029151;28;20224;-82
2022/10/05 03:44:56;;;;;;;9.03;5.30;;;11.80;99.90;;;;;;5010399;28;20212;-81
2022/10/05 03:47:34;;;;;;;10.27;5.30;;;11.90;99.90;;;;;;5015449;28;21878;-83
2022/10/05 03:50:29;;;;;;;6.63;5.07;;;11.80;99.90;;;;;;5002072;28;20739;-81
2022/10/05 03:52:59;;;;;;;7.70;5.30;;;11.90;99.90;;;;;;5020026;28;20213;-83
2022/10/05 03:55:33;;;;;;;9.83;5.60;;;11.80;99.90;;;;;;5017715;28;20298;-83
2022/10/05 03:58:06;;;;;;;10.10;6.20;;;11.80;99.90;;;;;;5002923;28;20240;-81
2022/10/05 04:00:35;;;;;;;10.57;5.03;;;11.80;99.90;;;;;;5008766;28;20236;-80
2022/10/05 04:03:11;;;;;;;6.70;5.47;;;11.90;99.90;;;;;;5004363;28;20302;-78
2022/10/05 04:05:44;;;;;;;8.17;5.07;;;11.90;99.90;;;;;;5011471;28;20244;-82
2022/10/05 04:08:20;;;;;;;9.60;5.97;;;11.90;99.90;;;;;;4993751;28;20229;-82
2022/10/05 04:10:49;;;;;;;10.13;5.17;;;11.90;99.90;;;;;;4997938;28;20225;-83
2022/10/05 04:13:26;;;;;;;6.80;4.90;;;11.90;99.90;;;;;;5006916;28;20232;-86
2022/10/05 04:16:00;;;;;;;8.60;5.50;;;11.90;99.90;;;;;;4999125;28;20228;-83
2022/10/05 04:18:33;;;;;;;8.33;5.50;;;11.90;99.90;;;;;;4985711;28;20274;-83
2022/10/05 04:21:06;;;;;;;10.97;6.10;;;12.00;99.90;;;;;;4992304;28;20255;-82
2022/10/05 04:23:43;;;;;;;10.30;5.97;;;12.00;99.90;;;;;;5004844;28;20298;-84
2022/10/05 04:26:13;;;;;;;9.67;5.50;;;12.00;99.90;;;;;;4994826;28;20233;-82
2022/10/05 04:28:48;;;;;;;8.93;5.73;;;12.00;99.90;;;;;;4976103;28;20362;-82
2022/10/05 04:31:22;;;;;;;8.70;5.97;;;12.00;99.90;;;;;;4993327;28;20239;-84
2022/10/05 04:34:02;;;;;;;9.10;5.87;;;12.00;99.90;;;;;;4993233;28;20653;-82
2022/10/05 04:36:33;;;;;;;10.93;5.77;;;12.00;99.90;;;;;;5015471;28;20249;-83
2022/10/05 04:39:10;;;;;;;10.50;5.53;;;12.00;99.90;;;;;;5005548;28;20227;-83
2022/10/05 04:41:49;;;;;;;7.23;5.37;;;12.10;99.90;;;;;;5013867;28;20814;-83
2022/10/05 04:44:35;;;;;;;7.80;5.23;;;12.10;99.90;;;;;;4990164;28;20222;-83
2022/10/05 04:47:20;;;;;;;7.70;5.57;;;12.10;99.90;;;;;;5009241;28;20229;-83
2022/10/05 04:50:01;;;;;;;6.53;5.57;;;12.10;99.90;;;;;;4986825;28;20210;-82
2022/10/05 04:52:37;;;;;;;9.17;5.93;;;12.10;99.90;;;;;;4992798;28;20675;-82
2022/10/05 04:55:12;;;;;;;10.60;5.70;;;12.10;99.90;;;;;;4993770;28;20765;-83
2022/10/05 04:57:46;;;;;;;7.13;5.40;;;12.10;99.90;;;;;;5024333;28;20380;-83
2022/10/05 05:00:22;;;;;;;8.50;5.83;;;12.10;99.90;;;;;;5002835;28;20227;-83
2022/10/05 05:03:35;;;;;;;7.13;5.67;;;12.10;99.90;;;;;;4986526;28;21081;-83
2022/10/05 05:06:17;;;;;;;9.93;6.23;;;12.10;99.90;;;;;;4940297;28;20227;-83
2022/10/05 05:09:13;;;;;;;9.03;6.07;;;12.10;99.90;;;;;;4997178;28;20224;-80
2022/10/05 05:11:53;;;;;;;10.27;6.33;;;12.10;99.90;;;;;;5023526;28;20236;-84
2022/10/05 05:14:38;;;;;;;12.83;6.43;;;12.10;99.90;;;;;;4999279;28;20221;-84
2022/10/05 05:17:21;;;;;;;10.17;6.30;;;12.10;99.90;;;;;;4991563;28;20232;-82
2022/10/05 05:19:59;;;;;;;12.00;6.50;;;12.10;99.90;;;;;;4990702;28;20225;-81
2022/10/05 05:22:34;;;;;;;9.37;6.43;;;12.10;99.90;;;;;;4988666;28;20220;-80
2022/10/05 05:25:16;;;;;;;9.10;6.40;;;12.10;99.90;;;;;;4994050;28;20271;-79
2022/10/05 05:27:46;;;;;;;10.87;6.07;;;12.10;99.90;;;;;;4991033;28;20236;-80
2022/10/05 05:30:20;;;;;;;11.30;6.53;;;12.10;99.90;;;;;;4978646;28;20214;-80
2022/10/05 05:33:08;;;;;;;14.20;8.27;;;12.10;99.90;;;;;;4986165;28;20217;-80
2022/10/05 05:35:58;;;;;;;8.63;7.13;;;12.10;99.90;;;;;;4994479;28;20226;-79
2022/10/05 05:38:34;;;;;;;10.23;7.30;;;12.10;99.90;;;;;;4981265;28;20792;-79
2022/10/05 05:41:12;;;;;;;8.73;6.30;;;12.10;99.90;;;;;;5012285;28;20521;-80
2022/10/05 05:43:58;;;;;;;9.73;6.60;;;12.10;99.90;;;;;;5004434;28;20597;-79
2022/10/05 05:46:28;;;;;;;9.23;6.53;;;12.10;99.90;;;;;;5001414;28;20238;-80
2022/10/05 05:48:57;;;;;;;12.07;6.77;;;12.10;99.90;;;;;;5005255;28;20441;-80
2022/10/05 05:51:30;;;;;;;8.87;6.37;;;12.10;99.90;;;;;;4998737;28;20260;-80
2022/10/05 05:54:17;;;;;;;8.37;6.17;;;12.20;99.90;;;;;;5021415;28;20228;-80
2022/10/05 05:56:51;;;;;;;11.87;7.57;;;12.10;99.90;;;;;;5002912;28;20230;-80
2022/10/05 05:59:27;;;;;;;10.33;7.03;;;12.20;99.90;;;;;;5004694;28;20299;-80
2022/10/05 06:01:59;;;;;;;13.57;7.07;;;12.20;99.90;;;;;;5005964;28;20759;-80
2022/10/05 06:04:31;;;;;;;11.13;7.63;;;12.20;99.90;;;;;;4986640;28;20321;-80
2022/10/05 06:07:01;;;;;;;10.27;6.63;;;12.20;99.90;;;;;;5025654;28;20321;-80
2022/10/05 06:09:37;;;;;;;10.57;7.33;;;12.20;99.90;;;;;;5009716;28;21082;-80
2022/10/05 06:12:24;;;;;;;10.23;7.30;;;12.20;99.90;;;;;;5016549;28;20218;-80
2022/10/05 06:14:55;;;;;;;11.93;7.03;;;12.20;99.90;;;;;;5008962;28;20679;-80
2022/10/05 06:17:31;;;;;;;11.20;7.33;;;12.20;99.90;;;;;;4990270;28;20297;-80
2022/10/05 06:20:00;;;;;;;8.20;6.53;;;12.20;99.90;;;;;;4990832;28;20221;-80
2022/10/05 06:22:32;;;;;;;11.73;6.90;;;12.20;99.90;;;;;;5025386;28;20239;-80
2022/10/05 06:25:14;;;;;;;12.83;7.37;;;12.20;99.90;;;;;;5013320;28;20373;-80
2022/10/05 06:28:01;;;;;;;10.13;6.43;;;12.20;99.90;;;;;;5008797;28;20225;-80
2022/10/05 06:30:38;;;;;;;9.50;7.13;;;12.20;99.90;;;;;;4998149;28;21005;-80
2022/10/05 06:33:18;;;;;;;15.03;7.23;;;12.20;99.90;;;;;;5006916;28;20228;-80
2022/10/05 06:36:00;;;;;;;10.17;6.87;;;12.20;99.90;;;;;;5012151;28;20703;-80
2022/10/05 06:38:50;;;;;;;10.13;7.17;;;12.20;99.90;;;;;;5027204;28;20230;-80
2022/10/05 06:41:27;;;;;;;8.57;6.80;;;12.20;99.90;;;;;;4997735;28;20466;-80
2022/10/05 06:43:58;;;;;;;11.07;7.17;;;12.30;99.90;;;;;;4992882;28;20346;-80
2022/10/05 06:46:46;;;;;;;10.30;7.50;;;12.30;99.90;;;;;;5008733;28;20237;-80
2022/10/05 06:49:36;;;;;;;12.73;7.70;;;12.30;99.90;;;;;;5008322;28;20238;-80
2022/10/05 06:52:38;;;;;;;11.47;6.53;;;12.30;99.90;;;;;;5016358;28;20580;-80
2022/10/05 06:55:18;;;;;;;12.30;7.70;;;12.40;99.90;;;;;;5002513;28;20246;-80
2022/10/05 06:57:58;;;;;;;7.97;6.50;;;12.40;99.90;;;;;;5006346;28;20334;-80
2022/10/05 07:00:32;;;;;;;12.50;7.10;;;12.40;99.90;;;;;;5017464;28;20668;-80
2022/10/05 07:03:10;;;;;;;9.00;6.80;;;12.50;99.90;;;;;;4984318;28;20229;-80
2022/10/05 07:05:52;;;;;;;12.40;7.17;;;12.50;99.90;;;;;;4993749;28;20664;-80
2022/10/05 07:08:32;;;;;;;10.03;6.57;;;12.50;99.90;;;;;;5007128;28;20231;-80
2022/10/05 07:11:06;;;;;;;10.17;7.00;;;12.60;99.90;;;;;;5004015;28;20233;-80
2022/10/05 07:13:52;;;;;;;10.47;6.70;;;12.70;99.90;;;;;;5003838;28;20248;-80
2022/10/05 07:16:32;;;;;;;11.63;6.37;;;12.60;99.90;;;;;;5003144;28;20266;-80
2022/10/05 07:19:16;;;;;;;8.47;6.13;;;12.70;99.90;;;;;;4994324;28;20244;-80
2022/10/05 07:21:55;;;;;;;7.90;6.30;;;12.80;99.90;;;;;;4983620;28;20245;-80
2022/10/05 07:24:31;;;;;;;10.63;6.70;;;12.80;99.90;;;;;;5000399;28;20962;-80
2022/10/05 07:27:10;;;;;;;10.23;6.60;;;12.90;99.90;;;;;;4999903;28;20231;-80
2022/10/05 07:29:47;;;;;;;7.43;5.97;;;12.90;99.90;;;;;;5006949;28;20620;-80
2022/10/05 07:32:32;;;;;;;11.27;6.80;;;13.00;99.90;;;;;;4989808;28;20226;-80
2022/10/05 07:35:05;;;;;;;11.27;6.57;;;13.10;99.90;;;;;;4985677;28;20228;-80
2022/10/05 07:37:53;;;;;;;8.07;6.00;;;13.10;99.90;;;;;;5003586;28;20311;-80
2022/10/05 07:40:27;;;;;;;8.60;6.30;;;13.20;99.90;;;;;;5009586;28;20220;-80
2022/10/05 07:43:18;;;;;;;10.20;6.10;;;13.30;99.90;;;;;;5021527;28;20224;-80
2022/10/05 07:45:51;;;;;;;9.87;6.83;;;13.30;99.90;;;;;;5005333;28;20235;-80
2022/10/05 07:48:22;;;;;;;8.70;6.00;;;13.40;99.90;;;;;;5011069;28;20384;-82
2022/10/05 07:50:59;;;;;;;9.33;6.70;;;13.40;99.90;;;;;;5010747;28;20284;-80
2022/10/05 07:53:34;;;;;;;9.77;6.07;;;13.40;99.90;;;;;;4995374;28;20222;-80
2022/10/05 07:56:06;;;;;;;6.93;6.03;;;13.50;99.90;;;;;;5005146;28;20708;-80
2022/10/05 07:58:40;;;;;;;9.73;6.10;;;13.50;99.90;;;;;;5000607;28;20286;-80
2022/10/05 08:01:15;;;;;;;9.67;5.90;;;13.60;99.90;;;;;;5015826;28;20461;-80
2022/10/05 08:03:52;;;;;;;7.67;5.73;;;13.60;99.90;;;;;;5005001;28;20229;-80
2022/10/05 08:06:34;;;;;;;8.87;5.77;;;13.60;99.90;;;;;;5006874;28;20382;-80
2022/10/05 08:09:08;;;;;;;8.57;5.37;;;13.60;99.90;;;;;;5015671;28;20260;-80
2022/10/05 08:11:47;;;;;;;9.17;5.80;;;13.60;99.90;;;;;;5008190;28;20226;-80
2022/10/05 08:14:23;;;;;;;9.33;6.27;;;13.60;99.90;;;;;;5014554;28;20709;-80
2022/10/05 08:16:55;;;;;;;11.53;6.20;;;13.70;99.90;;;;;;5019896;28;20294;-80
2022/10/05 08:19:29;;;;;;;6.73;5.53;;;13.70;99.90;;;;;;5000509;28;20309;-80
2022/10/05 08:22:01;;;;;;;9.77;5.70;;;13.70;99.90;;;;;;5006671;28;20227;-80
2022/10/05 08:24:41;;;;;;;10.30;6.17;;;13.70;99.90;;;;;;4988113;28;20313;-80
2022/10/05 08:27:14;;;;;;;6.87;5.37;;;13.70;99.90;;;;;;5015641;28;20234;-80
2022/10/05 08:29:50;;;;;;;8.70;5.37;;;13.80;99.90;;;;;;5000965;28;20698;-79
2022/10/05 08:32:24;;;;;;;8.90;6.10;;;13.80;99.90;;;;;;5005181;28;20245;-80
2022/10/05 08:34:58;;;;;;;9.30;6.00;;;13.90;99.90;;;;;;5018575;28;20622;-80
2022/10/05 08:37:28;;;;;;;8.33;5.97;;;14.00;99.90;;;;;;5005890;28;20697;-80
2022/10/05 08:40:00;;;;;;;8.03;5.80;;;14.10;99.90;;;;;;4989787;28;20221;-80
2022/10/05 08:42:59;;;;;;;7.80;5.30;;;14.10;99.90;;;;;;5006199;28;20234;-80
2022/10/05 08:46:13;;;;;;;7.97;6.23;;;14.20;99.90;;;;;;4996263;28;20635;-80
2022/10/05 08:49:16;;;;;;;8.57;6.00;;;14.30;99.90;;;;;;4986718;28;20392;-80
2022/10/05 08:52:05;;;;;;;9.07;6.40;;;14.40;99.90;;;;;;5004175;28;20225;-80
2022/10/05 08:54:57;;;;;;;11.83;6.73;;;14.50;99.90;;;;;;5006079;28;20258;-80
2022/10/05 08:57:52;;;;;;;8.60;5.73;;;14.50;99.90;;;;;;5005162;28;20291;-80
2022/10/05 09:00:21;;;;;;;8.17;6.00;;;14.60;99.90;;;;;;4999631;28;20371;-80
2022/10/05 09:03:09;;;;;;;11.57;6.73;;;14.70;99.90;;;;;;4990361;28;20255;-80
2022/10/05 09:06:05;;;;;;;9.37;6.10;;;14.80;99.90;;;;;;5002415;28;20259;-80
2022/10/05 09:09:01;;;;;;;10.23;6.37;;;14.90;99.90;;;;;;5008745;28;20233;-80
2022/10/05 09:11:35;;;;;;;12.27;6.27;;;15.00;99.90;;;;;;4999922;28;20235;-80
2022/10/05 09:14:28;;;;;;;8.27;6.10;;;15.10;99.90;;;;;;5000546;28;20266;-80
2022/10/05 09:17:08;;;;;;;8.47;6.07;;;15.20;99.90;;;;;;5013421;28;20316;-80
2022/10/05 09:20:06;;;;;;;9.80;5.57;;;15.20;99.90;;;;;;4996839;28;20231;-80
2022/10/05 09:22:58;;;;;;;10.47;6.10;;;15.20;99.90;;;;;;5013777;28;20302;-80
2022/10/05 09:25:40;;;;;;;9.23;5.87;;;15.20;99.90;;;;;;5018523;28;20576;-80
2022/10/05 09:28:23;;;;;;;7.43;5.23;;;15.30;99.90;;;;;;5023197;28;20234;-80
2022/10/05 09:31:04;;;;;;;7.73;5.53;;;15.30;99.90;;;;;;4999646;28;20231;-80
2022/10/05 09:34:17;;;;;;;6.93;5.17;;;15.40;99.90;;;;;;5007426;28;20341;-80
2022/10/05 09:37:18;;;;;;;7.47;5.40;;;15.50;99.90;;;;;;5007578;23;20238;-88
2022/10/05 09:40:21;;;;;;;7.20;5.60;;;15.60;99.90;;;;;;5014589;28;20229;-89
2022/10/05 09:43:07;;;;;;;6.37;5.37;;;15.70;99.90;;;;;;4966672;28;20308;-89
2022/10/05 09:45:59;;;;;;;6.30;5.10;;;15.80;99.90;;;;;;5012780;28;20278;-88
2022/10/05 09:48:55;;;;;;;7.93;5.60;;;15.90;99.90;;;;;;5013863;28;20218;-89
2022/10/05 09:52:02;;;;;;;7.77;6.27;;;15.90;99.90;;;;;;5000306;28;20512;-89
2022/10/05 09:54:55;;;;;;;6.00;5.40;;;16.10;99.90;;;;;;5002449;28;20325;-88
2022/10/05 09:57:55;;;;;;;7.47;6.17;;;16.20;99.90;;;;;;4994361;28;20296;-88
2022/10/05 10:00:39;;;;;;;8.93;5.93;;;16.30;99.90;;;;;;4998888;28;20478;-88
2022/10/05 10:03:40;;;;;;;6.97;5.90;;;16.30;99.90;;;;;;4992029;28;20230;-88
2022/10/05 10:06:20;;;;;;;5.97;5.20;;;16.40;99.90;;;;;;5005930;28;20219;-88
2022/10/05 10:09:04;;;;;;;5.80;5.23;;;16.40;99.90;;;;;;4996578;28;20716;-89
2022/10/05 10:11:42;;;;;;;5.90;5.03;;;16.30;99.90;;;;;;4994070;28;20625;-89
2022/10/05 10:14:42;;;;;;;5.33;4.73;;;16.30;99.90;;;;;;5003041;28;20234;-89
2022/10/05 10:17:28;;;;;;;8.60;4.60;;;16.30;99.90;;;;;;5003208;28;20236;-88
2022/10/05 10:20:14;;;;;;;6.10;4.47;;;16.30;99.90;;;;;;4994581;28;20744;-88
2022/10/05 10:22:58;;;;;;;5.03;4.30;;;16.30;99.90;;;;;;4997063;28;20341;-88
2022/10/05 10:26:00;;;;;;;5.77;4.53;;;16.20;99.90;;;;;;4995796;28;20228;-89
2022/10/05 10:29:07;;;;;;;6.87;4.17;;;16.20;99.90;;;;;;5010645;28;20229;-88
2022/10/05 10:31:56;;;;;;;6.10;4.23;;;16.20;99.90;;;;;;4996486;28;20376;-86
2022/10/05 10:34:52;;;;;;;6.03;4.13;;;16.20;99.90;;;;;;4986712;28;20238;-88
2022/10/05 10:37:38;;;;;;;4.63;4.00;;;16.20;99.90;;;;;;5002740;28;20234;-88
2022/10/05 10:40:25;;;;;;;4.77;3.77;;;16.30;99.90;;;;;;5006099;28;20233;-89
2022/10/05 10:43:22;;;;;;;5.37;4.03;;;16.30;99.90;;;;;;4998962;28;20233;-87
2022/10/05 10:45:59;;;;;;;5.23;3.93;;;16.30;99.90;;;;;;5002309;28;20304;-88
2022/10/05 10:48:51;;;;;;;6.70;4.43;;;16.40;99.90;;;;;;4993796;28;20712;-88
2022/10/05 10:51:33;;;;;;;5.00;4.20;;;16.40;99.90;;;;;;5000729;28;20314;-88
2022/10/05 10:54:26;;;;;;;5.27;4.13;;;16.40;99.90;;;;;;5015112;28;20236;-88
2022/10/05 10:57:05;;;;;;;6.50;4.10;;;16.40;99.90;;;;;;5032354;28;20243;-87
2022/10/05 11:00:00;;;;;;;4.57;3.80;;;16.40;99.90;;;;;;5007170;28;20241;-88
2022/10/05 11:03:11;;;;;;;5.60;4.00;;;16.40;99.90;;;;;;5000309;28;20244;-87
2022/10/05 11:05:55;;;;;;;6.40;4.30;;;16.30;99.90;;;;;;5002888;28;21032;-89
2022/10/05 11:08:52;;;;;;;4.73;4.13;;;16.30;99.90;;;;;;5022292;28;20796;-87
2022/10/05 11:12:01;;;;;;;5.03;4.47;;;16.30;99.90;;;;;;5007538;28;20235;-87
2022/10/05 11:15:10;;;;;;;5.73;4.97;;;16.30;99.90;;;;;;5008184;28;20238;-88
2022/10/05 11:17:53;;;;;;;6.00;4.60;;;16.20;99.90;;;;;;5003075;28;20263;-88
2022/10/05 11:20:39;;;;;;;5.67;4.87;;;16.20;99.90;;;;;;5021642;28;20233;-88
2022/10/05 11:23:27;;;;;;;7.20;4.40;;;16.10;99.90;;;;;;5019350;28;20315;-89
2022/10/05 11:26:19;;;;;;;6.03;4.17;;;16.10;99.90;;;;;;5020916;28;20355;-87
2022/10/05 11:29:17;;;;;;;6.87;4.30;;;16.10;99.90;;;;;;5019267;28;20876;-88
2022/10/05 11:32:05;;;;;;;5.50;4.60;;;16.10;99.90;;;;;;5019241;28;20226;-87
2022/10/05 11:34:55;;;;;;;6.53;3.83;;;16.10;99.90;;;;;;5033949;28;20623;-87
2022/10/05 11:37:44;;;;;;;6.57;4.30;;;16.00;99.90;;;;;;5015842;28;20596;-88
2022/10/05 11:40:33;;;;;;;5.57;4.60;;;16.00;99.90;;;;;;5018182;28;20222;-88
2022/10/05 11:43:40;;;;;;;6.30;4.50;;;16.10;99.90;;;;;;5022531;28;20711;-86
2022/10/05 11:46:15;;;;;;;6.30;4.13;;;16.00;99.90;;;;;;5019989;28;20766;-88
2022/10/05 11:49:10;;;;;;;6.37;4.20;;;16.00;99.90;;;;;;5017474;28;20221;-88
2022/10/05 11:51:54;;;;;;;6.07;3.70;;;16.00;99.90;;;;;;5018745;28;20221;-88
2022/10/05 11:54:48;;;;;;;4.70;3.87;;;16.00;99.90;;;;;;5020814;28;20324;-87
2022/10/05 11:57:20;;;;;;;5.43;3.70;;;16.00;99.90;;;;;;5022271;28;20222;-87
2022/10/05 11:59:56;;;;;;;4.13;3.70;;;16.10;99.90;;;;;;5022795;28;20229;-88
2022/10/05 12:02:51;;;;;;;4.57;3.40;;;16.10;99.90;;;;;;5017356;28;20231;-87
2022/10/05 12:05:24;;;;;;;4.53;3.93;;;16.10;99.90;;;;;;5015260;28;20812;-87
2022/10/05 12:08:09;;;;;;;5.70;3.93;;;16.10;99.90;;;;;;5036345;28;20724;-89
2022/10/05 12:10:45;;;;;;;3.70;3.10;;;16.20;99.90;;;;;;5020215;28;20339;-87
2022/10/05 12:13:25;;;;;;;4.60;3.13;;;16.20;99.90;;;;;;5018680;28;20333;-88
2022/10/05 12:16:00;;;;;;;7.63;3.23;;;16.20;99.90;;;;;;5022131;28;20730;-88
2022/10/05 12:18:50;;;;;;;3.77;2.97;;;16.30;99.90;;;;;;5024758;28;20236;-87
2022/10/05 12:21:27;;;;;;;3.60;2.77;;;16.30;99.90;;;;;;5033361;28;20241;-88
2022/10/05 12:23:58;;;;;;;3.63;2.77;;;16.40;99.90;;;;;;5017546;28;20223;-88
2022/10/05 12:26:28;;;;;;;4.17;2.67;;;16.40;99.90;;;;;;5015937;28;20252;-88
2022/10/05 12:29:02;;;;;;;2.73;2.40;;;16.50;99.90;;;;;;5021439;28;20230;-87
2022/10/05 12:31:40;;;;;;;4.07;2.87;;;16.60;99.90;;;;;;5013017;28;20286;-88
2022/10/05 12:34:17;;;;;;;3.63;2.70;;;16.60;99.90;;;;;;4998080;28;20278;-88
2022/10/05 12:36:51;;;;;;;5.27;2.80;;;16.70;99.90;;;;;;5004905;28;20238;-88
2022/10/05 12:39:25;;;;;;;4.07;2.87;;;16.90;99.90;;;;;;5000457;28;20235;-88
2022/10/05 12:42:01;;;;;;;3.67;3.00;;;16.90;99.90;;;;;;4999786;28;20308;-88
2022/10/05 12:44:44;;;;;;;3.73;2.87;;;16.90;99.90;;;;;;4997650;28;20785;-88
2022/10/05 12:47:19;;;;;;;3.30;2.90;;;17.00;99.90;;;;;;5006372;28;20290;-87
2022/10/05 12:50:01;;;;;;;5.80;3.10;;;17.10;99.90;;;;;;5008635;28;20318;-87
2022/10/05 12:52:43;;;;;;;2.90;2.60;;;17.10;99.90;;;;;;4997021;28;20227;-87
2022/10/05 12:55:19;;;;;;;4.20;3.03;;;17.20;99.90;;;;;;4994979;28;20262;-87
2022/10/05 12:57:53;;;;;;;5.77;2.63;;;17.20;99.90;;;;;;4997685;28;20236;-87
2022/10/05 13:00:21;;;;;;;4.33;2.60;;;17.30;99.90;;;;;;4998272;28;20381;-88
2022/10/05 13:02:50;;;;;;;3.10;2.80;;;17.40;99.90;;;;;;4999145;28;20618;-87
2022/10/05 13:05:26;;;;;;;3.93;2.67;;;17.40;99.90;;;;;;4995682;28;20232;-87
2022/10/05 13:08:06;;;;;;;4.93;3.17;;;17.40;99.90;;;;;;4997900;28;20217;-88
2022/10/05 13:10:36;;;;;;;3.03;2.70;;;17.50;99.90;;;;;;5014516;28;20586;-87
2022/10/05 13:13:28;;;;;;;2.63;2.43;;;17.50;99.90;;;;;;5033719;28;20592;-88
2022/10/05 13:16:01;;;;;;;4.30;2.80;;;17.60;99.90;;;;;;5026270;28;20544;-91
2022/10/05 13:18:43;;;;;;;4.60;2.93;;;17.70;99.90;;;;;;5011834;28;20745;-90
2022/10/05 13:21:16;;;;;;;3.43;2.60;;;17.60;99.90;;;;;;5017387;28;20577;-88
2022/10/05 13:23:58;;;;;;;3.07;2.40;;;17.70;99.90;;;;;;5018262;28;20227;-88
2022/10/05 13:26:29;;;;;;;4.57;2.87;;;17.70;99.70;;;;;;5032645;28;20218;-90
2022/10/05 13:29:02;;;;;;;4.43;2.70;;;17.70;99.90;;;;;;5011855;28;20227;-90
2022/10/05 13:31:35;;;;;;;4.67;2.80;;;17.80;99.90;;;;;;5017708;28;20311;-90
2022/10/05 13:34:21;;;;;;;3.13;2.67;;;17.80;99.90;;;;;;5015251;28;20240;-89
2022/10/05 13:37:05;;;;;;;3.47;2.70;;;17.80;99.70;;;;;;5013574;28;20247;-90
2022/10/05 13:39:46;;;;;;;3.53;2.70;;;17.80;99.80;;;;;;5012263;28;20286;-90
2022/10/05 13:42:17;;;;;;;2.80;2.47;;;17.80;99.90;;;;;;5018697;28;20223;-90
2022/10/05 13:44:49;;;;;;;3.27;2.53;;;17.80;99.90;;;;;;5026111;28;20237;-90
2022/10/05 13:47:24;;;;;;;3.90;2.50;;;17.80;99.90;;;;;;5009032;28;20312;-90